Time;durP1;ratioP1;P1;durP2;ratioP2;P2;SDS_P1;SDS_P2;PMS_P1;PMS_P2;Temp;Humidity;BMP_temperature;BMP_pressure;BME280_temperature;BME280_humidity;BME280_pressure;Samples;Min_cycle;Max_cycle;Signal;HPM_P1;HPM_P2
2024/01/29 00:03:07;;;;;;;10.43;5.65;;;3.80;99.90;;;;;;10060457;28;21459;-65
2024/01/29 00:07:57;;;;;;;11.40;6.18;;;3.80;99.90;;;;;;10060640;28;20028;-67
2024/01/29 00:12:48;;;;;;;9.77;6.28;;;3.80;99.90;;;;;;10060801;28;20044;-66
2024/01/29 00:17:38;;;;;;;14.20;7.47;;;3.80;99.90;;;;;;10052252;28;20063;-68
2024/01/29 00:22:29;;;;;;;11.50;6.20;;;3.80;99.90;;;;;;10057045;28;20100;-65
2024/01/29 00:27:20;;;;;;;12.25;7.45;;;3.80;99.90;;;;;;10059627;28;20026;-65
2024/01/29 00:32:10;;;;;;;10.73;6.25;;;3.80;99.90;;;;;;10060171;28;20037;-65
2024/01/29 00:37:01;;;;;;;10.98;6.68;;;3.70;99.90;;;;;;10059020;28;20036;-64
2024/01/29 00:41:52;;;;;;;14.82;7.07;;;3.70;99.90;;;;;;10060507;28;20465;-68
2024/01/29 00:46:43;;;;;;;11.20;7.45;;;3.80;99.90;;;;;;10060286;28;20025;-66
2024/01/29 00:51:33;;;;;;;16.58;7.40;;;3.80;99.90;;;;;;10059479;28;20052;-65
2024/01/29 00:56:24;;;;;;;10.82;6.22;;;3.80;99.90;;;;;;10059906;28;20025;-66
2024/01/29 01:01:15;;;;;;;13.60;7.47;;;3.80;99.90;;;;;;10059930;28;20034;-65
2024/01/29 01:06:06;;;;;;;13.93;7.85;;;3.80;99.90;;;;;;10057661;28;20026;-64
2024/01/29 01:10:56;;;;;;;10.88;6.88;;;3.80;99.90;;;;;;10058229;28;20124;-65
2024/01/29 01:15:47;;;;;;;12.73;7.63;;;3.80;99.90;;;;;;10059065;28;20134;-65
2024/01/29 01:20:38;;;;;;;11.63;7.07;;;3.80;99.90;;;;;;10058206;28;20028;-65
2024/01/29 01:25:28;;;;;;;10.88;6.18;;;3.80;99.90;;;;;;10057760;28;20064;-64
2024/01/29 01:30:20;;;;;;;10.68;6.43;;;3.90;99.90;;;;;;10057402;28;20056;-66
2024/01/29 01:35:11;;;;;;;12.82;6.80;;;3.80;99.90;;;;;;10063706;28;20123;-65
2024/01/29 01:40:04;;;;;;;11.23;6.75;;;3.80;99.90;;;;;;10049661;28;20542;-66
2024/01/29 01:44:55;;;;;;;10.48;6.72;;;3.80;99.90;;;;;;10058073;28;20109;-70
2024/01/29 01:49:46;;;;;;;13.98;6.90;;;3.70;99.90;;;;;;10057471;28;20675;-66
2024/01/29 01:54:37;;;;;;;11.23;7.10;;;3.80;99.90;;;;;;10057067;28;20045;-66
2024/01/29 01:59:29;;;;;;;13.68;6.70;;;3.80;99.90;;;;;;10057278;28;20403;-66
2024/01/29 02:04:20;;;;;;;10.88;6.68;;;3.80;99.90;;;;;;10043892;28;20118;-67
2024/01/29 02:09:11;;;;;;;9.32;6.40;;;3.70;99.90;;;;;;10057025;28;20036;-66
2024/01/29 02:14:02;;;;;;;10.65;5.68;;;3.80;99.90;;;;;;10056305;28;20061;-67
2024/01/29 02:18:53;;;;;;;11.27;6.07;;;3.80;99.90;;;;;;10056328;28;20493;-68
2024/01/29 02:23:46;;;;;;;11.63;5.90;;;3.80;99.90;;;;;;10055906;28;20146;-65
2024/01/29 02:28:37;;;;;;;10.65;5.88;;;3.80;99.90;;;;;;10056465;28;20071;-66
2024/01/29 02:33:28;;;;;;;9.90;6.22;;;3.80;99.90;;;;;;10055694;28;20492;-67
2024/01/29 02:38:19;;;;;;;10.48;6.05;;;3.80;99.90;;;;;;10056206;28;20037;-70
2024/01/29 02:43:10;;;;;;;11.65;6.47;;;3.70;99.90;;;;;;10056451;28;20025;-67
2024/01/29 02:48:00;;;;;;;10.15;6.05;;;3.70;99.90;;;;;;10055712;28;20018;-71
2024/01/29 02:52:51;;;;;;;10.10;6.43;;;3.70;99.90;;;;;;10050665;28;20045;-65
2024/01/29 02:57:42;;;;;;;11.38;6.90;;;3.70;99.90;;;;;;10053729;28;20037;-69
2024/01/29 03:02:33;;;;;;;11.40;6.28;;;3.80;99.90;;;;;;10054863;28;20033;-69
2024/01/29 03:07:23;;;;;;;10.98;6.38;;;3.70;99.90;;;;;;10055071;28;20037;-69
2024/01/29 03:12:14;;;;;;;14.60;7.15;;;3.70;99.90;;;;;;10087264;28;20084;-67
2024/01/29 03:17:05;;;;;;;10.80;6.68;;;3.70;99.90;;;;;;10055333;28;20093;-68
2024/01/29 03:21:55;;;;;;;9.93;5.97;;;3.70;99.90;;;;;;10054766;28;20056;-68
2024/01/29 03:26:46;;;;;;;10.27;6.28;;;3.60;99.90;;;;;;10055215;28;20039;-68
2024/01/29 03:31:37;;;;;;;10.00;7.43;;;3.70;99.90;;;;;;10056600;28;20041;-67
2024/01/29 03:36:27;;;;;;;11.57;7.20;;;3.60;99.90;;;;;;10062763;28;20406;-70
2024/01/29 03:41:18;;;;;;;9.88;6.45;;;3.60;99.90;;;;;;10064308;28;20021;-66
2024/01/29 03:46:09;;;;;;;10.52;6.75;;;3.70;99.90;;;;;;10069993;28;20515;-68
2024/01/29 03:50:59;;;;;;;10.13;6.57;;;3.70;99.90;;;;;;10061408;28;20083;-67
2024/01/29 03:55:52;;;;;;;11.57;6.40;;;3.60;99.90;;;;;;10061929;28;20033;-69
2024/01/29 04:00:43;;;;;;;11.02;7.18;;;3.60;99.90;;;;;;10060924;28;20107;-66
2024/01/29 04:05:33;;;;;;;12.73;6.82;;;3.60;99.90;;;;;;10060629;28;20060;-69
2024/01/29 04:10:24;;;;;;;9.77;6.65;;;3.60;99.90;;;;;;10060679;28;20021;-66
2024/01/29 04:15:14;;;;;;;11.93;6.40;;;3.60;99.90;;;;;;10061238;28;20035;-66
2024/01/29 04:20:06;;;;;;;11.68;6.28;;;3.70;99.90;;;;;;10060720;28;20108;-65
2024/01/29 04:24:57;;;;;;;8.48;6.00;;;3.60;99.90;;;;;;10063768;28;20641;-66
2024/01/29 04:29:48;;;;;;;12.55;5.82;;;3.60;99.90;;;;;;10060270;28;20775;-64
2024/01/29 04:34:39;;;;;;;7.78;5.18;;;3.70;99.90;;;;;;10059091;28;20034;-67
2024/01/29 04:39:29;;;;;;;13.15;6.10;;;3.60;99.90;;;;;;10060524;28;20074;-66
2024/01/29 04:44:20;;;;;;;9.18;5.43;;;3.60;99.90;;;;;;10059300;28;20034;-69
2024/01/29 04:49:10;;;;;;;7.90;5.28;;;3.60;99.90;;;;;;10059748;28;20165;-64
2024/01/29 04:54:01;;;;;;;10.82;5.68;;;3.60;99.90;;;;;;10059226;28;20038;-64
2024/01/29 04:58:52;;;;;;;7.97;5.13;;;3.60;99.90;;;;;;10059602;28;20165;-64
2024/01/29 05:03:43;;;;;;;9.82;4.95;;;3.60;99.90;;;;;;10059815;28;20462;-65
2024/01/29 05:08:34;;;;;;;6.13;4.50;;;3.60;99.90;;;;;;10058919;28;20694;-65
2024/01/29 05:13:26;;;;;;;10.55;5.03;;;3.70;99.90;;;;;;10058421;28;20033;-64
2024/01/29 05:18:16;;;;;;;7.22;4.32;;;3.70;99.90;;;;;;10058929;28;20507;-64
2024/01/29 05:23:07;;;;;;;5.75;4.57;;;3.70;99.90;;;;;;10057975;28;20205;-68
2024/01/29 05:27:57;;;;;;;9.15;5.07;;;3.70;99.90;;;;;;10056891;28;20037;-65
2024/01/29 05:32:48;;;;;;;7.03;4.63;;;3.70;99.90;;;;;;10054689;28;20096;-63
2024/01/29 05:37:39;;;;;;;8.13;4.88;;;3.70;99.90;;;;;;10054428;28;20108;-64
2024/01/29 05:42:29;;;;;;;8.15;4.15;;;3.70;99.90;;;;;;10057252;28;20091;-63
2024/01/29 05:47:20;;;;;;;8.07;4.65;;;3.60;99.90;;;;;;10056999;28;20029;-64
2024/01/29 05:52:11;;;;;;;8.20;4.80;;;3.70;99.90;;;;;;10057002;28;20045;-65
2024/01/29 05:57:02;;;;;;;10.60;4.78;;;3.70;99.90;;;;;;10057037;28;20441;-70
2024/01/29 06:01:52;;;;;;;7.97;4.90;;;3.70;99.90;;;;;;10056273;28;20045;-64
2024/01/29 06:06:43;;;;;;;10.60;5.05;;;3.80;99.90;;;;;;10058645;28;20478;-66
2024/01/29 06:11:34;;;;;;;7.43;4.80;;;3.70;99.90;;;;;;10056630;28;20045;-65
2024/01/29 06:16:25;;;;;;;9.70;3.92;;;3.70;99.90;;;;;;10061353;28;20112;-71
2024/01/29 06:21:16;;;;;;;7.28;4.65;;;3.70;99.90;;;;;;10056072;28;20503;-70
2024/01/29 06:26:07;;;;;;;8.05;4.28;;;3.70;99.90;;;;;;10056871;28;20047;-65
2024/01/29 06:30:57;;;;;;;10.00;4.97;;;3.70;99.90;;;;;;10055835;28;20096;-64
2024/01/29 06:35:48;;;;;;;9.63;4.57;;;3.70;99.90;;;;;;10055623;28;20041;-64
2024/01/29 06:40:39;;;;;;;6.78;3.88;;;3.70;99.90;;;;;;10055353;28;20033;-70
2024/01/29 06:45:30;;;;;;;7.43;5.15;;;3.80;99.90;;;;;;10051574;28;20132;-64
2024/01/29 06:50:21;;;;;;;9.32;4.53;;;3.80;99.90;;;;;;10046237;28;20435;-66
2024/01/29 06:55:12;;;;;;;7.07;4.30;;;3.80;99.90;;;;;;10050009;28;20033;-65
2024/01/29 07:00:03;;;;;;;8.40;5.05;;;3.80;99.90;;;;;;10050617;28;20071;-67
2024/01/29 07:04:54;;;;;;;10.75;5.22;;;3.80;99.90;;;;;;10054384;28;20021;-66
2024/01/29 07:09:45;;;;;;;10.98;5.47;;;3.80;99.90;;;;;;10062910;28;20029;-66
2024/01/29 07:14:35;;;;;;;8.45;5.97;;;3.90;99.90;;;;;;10061839;28;20115;-67
2024/01/29 07:19:27;;;;;;;12.45;6.75;;;3.90;99.90;;;;;;10061925;28;20029;-68
2024/01/29 07:24:18;;;;;;;11.43;5.70;;;3.90;99.90;;;;;;10060890;28;20527;-69
2024/01/29 07:29:09;;;;;;;11.18;5.80;;;3.90;99.90;;;;;;10062621;28;20021;-69
2024/01/29 07:33:59;;;;;;;11.73;5.97;;;4.00;99.90;;;;;;10060725;28;20045;-64
2024/01/29 07:38:50;;;;;;;9.13;5.28;;;4.00;99.90;;;;;;10062822;28;20509;-65
2024/01/29 07:43:41;;;;;;;12.07;6.22;;;4.00;99.90;;;;;;10051055;28;20030;-65
2024/01/29 07:48:31;;;;;;;9.63;4.88;;;4.00;99.90;;;;;;10051523;28;20071;-68
2024/01/29 07:53:22;;;;;;;9.25;6.32;;;4.00;99.90;;;;;;10051208;28;20583;-67
2024/01/29 07:58:13;;;;;;;9.75;5.20;;;4.10;99.90;;;;;;10054006;28;20032;-66
2024/01/29 08:03:03;;;;;;;9.82;6.35;;;4.10;99.90;;;;;;10054695;28;20037;-64
2024/01/29 08:07:54;;;;;;;8.95;5.97;;;4.10;99.90;;;;;;10059742;28;20033;-64
2024/01/29 08:12:45;;;;;;;12.25;6.93;;;4.10;99.90;;;;;;10060968;28;20112;-66
2024/01/29 08:17:36;;;;;;;11.95;6.00;;;4.10;99.90;;;;;;10052670;28;20063;-64
2024/01/29 08:22:27;;;;;;;12.55;6.28;;;4.10;99.90;;;;;;10056896;28;20145;-63
2024/01/29 08:27:17;;;;;;;11.57;6.22;;;4.20;99.90;;;;;;10060618;28;20755;-65
2024/01/29 08:32:08;;;;;;;10.40;6.50;;;4.20;99.90;;;;;;10050811;28;20053;-63
2024/01/29 08:36:59;;;;;;;11.02;6.65;;;4.20;99.90;;;;;;10059945;28;20025;-63
2024/01/29 08:41:50;;;;;;;9.50;6.25;;;4.20;99.90;;;;;;10058578;28;20621;-64
2024/01/29 08:46:41;;;;;;;11.60;5.65;;;4.20;99.90;;;;;;10077175;28;20033;-63
2024/01/29 08:51:31;;;;;;;11.60;6.97;;;4.30;99.90;;;;;;10066009;28;20126;-65
2024/01/29 08:56:22;;;;;;;11.65;6.90;;;4.30;99.90;;;;;;10077432;28;20466;-65
2024/01/29 09:01:12;;;;;;;19.88;7.45;;;4.40;99.90;;;;;;10059925;28;20044;-65
2024/01/29 09:06:03;;;;;;;13.82;7.25;;;4.40;99.90;;;;;;10073533;28;20033;-68
2024/01/29 09:10:54;;;;;;;11.93;6.38;;;4.40;99.90;;;;;;10067366;28;20099;-64
2024/01/29 09:15:45;;;;;;;11.18;6.80;;;4.40;99.90;;;;;;10052736;28;20136;-64
2024/01/29 09:20:35;;;;;;;9.77;6.68;;;4.50;99.90;;;;;;10058690;28;20061;-64
2024/01/29 09:25:26;;;;;;;14.32;7.07;;;4.50;99.90;;;;;;10058077;28;20110;-65
2024/01/29 09:30:16;;;;;;;12.73;8.13;;;4.60;99.90;;;;;;10057415;28;20036;-66
2024/01/29 09:35:08;;;;;;;14.80;7.97;;;4.60;99.90;;;;;;10058124;28;20094;-65
2024/01/29 09:39:59;;;;;;;14.82;8.60;;;4.60;99.90;;;;;;10042613;28;20041;-64
2024/01/29 09:44:53;;;;;;;16.52;9.98;;;4.70;99.90;;;;;;10049853;28;20120;-68
2024/01/29 09:49:44;;;;;;;17.67;10.52;;;4.70;99.90;;;;;;10039522;28;20030;-66
2024/01/29 09:54:36;;;;;;;18.83;10.27;;;4.70;99.90;;;;;;10056920;28;20044;-64
2024/01/29 09:59:27;;;;;;;20.67;10.48;;;4.80;99.90;;;;;;10036157;28;20033;-66
2024/01/29 10:04:19;;;;;;;14.15;9.38;;;4.80;99.90;;;;;;10047401;28;20592;-67
2024/01/29 10:09:11;;;;;;;17.98;9.02;;;4.90;99.90;;;;;;10052779;28;20029;-64
2024/01/29 10:14:02;;;;;;;14.93;8.63;;;5.00;99.90;;;;;;10045811;28;20513;-64
2024/01/29 10:18:59;;;;;;;15.13;8.18;;;5.00;99.90;;;;;;10051780;28;20039;-66
2024/01/29 10:23:56;;;;;;;13.50;7.38;;;5.10;99.90;;;;;;10056013;28;20049;-63
2024/01/29 10:28:58;;;;;;;13.82;8.15;;;5.20;99.90;;;;;;10028753;28;20030;-64
2024/01/29 10:33:48;;;;;;;11.80;6.30;;;5.20;99.90;;;;;;10034667;28;20172;-64
2024/01/29 10:38:43;;;;;;;12.05;6.65;;;5.20;99.90;;;;;;10047782;28;20125;-64
2024/01/29 10:43:39;;;;;;;15.18;7.55;;;5.30;99.90;;;;;;10049680;28;20796;-63
2024/01/29 10:48:31;;;;;;;13.95;7.15;;;5.30;99.90;;;;;;10055165;28;20117;-66
2024/01/29 10:53:22;;;;;;;12.95;7.53;;;5.40;99.90;;;;;;10053163;28;20040;-66
2024/01/29 10:58:14;;;;;;;10.55;6.00;;;5.40;99.90;;;;;;10044460;28;20038;-68
2024/01/29 11:03:07;;;;;;;11.10;6.85;;;5.40;99.90;;;;;;10044637;28;20078;-65
2024/01/29 11:08:01;;;;;;;11.25;6.50;;;5.50;99.90;;;;;;10046051;28;20017;-66
2024/01/29 11:12:54;;;;;;;9.70;5.57;;;5.60;99.90;;;;;;10039395;28;20049;-65
2024/01/29 11:17:45;;;;;;;12.45;6.53;;;5.60;99.90;;;;;;10046126;28;20458;-65
2024/01/29 11:22:37;;;;;;;9.45;6.43;;;5.70;99.90;;;;;;10045490;28;20037;-66
2024/01/29 11:27:31;;;;;;;7.53;5.38;;;5.80;99.90;;;;;;10053413;28;20034;-67
2024/01/29 11:32:21;;;;;;;8.30;4.82;;;5.90;99.90;;;;;;10046195;28;20435;-66
2024/01/29 11:37:12;;;;;;;7.47;4.68;;;5.90;99.90;;;;;;10052078;28;20032;-66
2024/01/29 11:42:03;;;;;;;8.10;4.97;;;6.00;99.90;;;;;;10047869;28;20042;-65
2024/01/29 11:46:56;;;;;;;6.78;4.25;;;6.10;99.90;;;;;;10053710;28;20419;-66
2024/01/29 11:51:47;;;;;;;7.53;5.55;;;6.20;99.90;;;;;;10054953;28;20053;-66
2024/01/29 11:56:38;;;;;;;8.75;4.13;;;6.20;99.90;;;;;;10044410;28;20032;-65
2024/01/29 12:01:31;;;;;;;7.88;4.88;;;6.20;99.90;;;;;;10058001;28;20491;-66
2024/01/29 12:06:22;;;;;;;6.50;3.92;;;6.20;99.90;;;;;;10047846;28;20632;-64
2024/01/29 12:11:14;;;;;;;8.68;5.00;;;6.20;99.90;;;;;;10059618;28;20075;-65
2024/01/29 12:16:05;;;;;;;8.82;4.47;;;6.40;99.90;;;;;;10060440;28;20653;-64
2024/01/29 12:20:56;;;;;;;7.05;4.15;;;6.60;99.90;;;;;;10058273;28;20024;-65
2024/01/29 12:25:55;;;;;;;8.48;5.10;;;6.70;99.90;;;;;;10057635;28;20542;-67
2024/01/29 12:30:52;;;;;;;8.13;4.55;;;6.80;99.90;;;;;;10058767;28;20037;-66
2024/01/29 12:35:43;;;;;;;5.55;4.88;;;7.00;99.90;;;;;;10054645;28;20604;-66
2024/01/29 12:40:35;;;;;;;9.82;4.78;;;7.20;99.90;;;;;;10041991;28;20053;-63
2024/01/29 12:45:25;;;;;;;9.55;5.30;;;7.20;99.90;;;;;;10054104;28;20403;-65
2024/01/29 12:50:17;;;;;;;11.00;4.43;;;7.30;99.90;;;;;;10055379;28;20035;-68
2024/01/29 12:55:08;;;;;;;10.32;4.63;;;7.30;99.90;;;;;;10067014;28;20076;-68
2024/01/29 12:59:59;;;;;;;6.07;4.25;;;7.50;99.90;;;;;;10050863;28;20048;-65
2024/01/29 13:04:49;;;;;;;6.55;4.53;;;7.40;99.90;;;;;;10056429;28;20025;-68
2024/01/29 13:09:40;;;;;;;9.15;4.38;;;7.60;99.90;;;;;;10049705;28;20028;-68
2024/01/29 13:14:31;;;;;;;6.57;3.55;;;7.60;99.90;;;;;;10040166;28;20052;-67
2024/01/29 13:19:22;;;;;;;4.72;3.42;;;7.80;99.90;;;;;;10048251;28;20018;-67
2024/01/29 13:24:12;;;;;;;7.40;3.80;;;7.80;99.90;;;;;;10056188;28;20056;-67
2024/01/29 13:29:03;;;;;;;8.20;4.20;;;8.00;99.90;;;;;;10049972;28;20037;-67
2024/01/29 13:33:54;;;;;;;6.55;4.10;;;7.90;99.90;;;;;;10055158;28;20411;-66
2024/01/29 13:38:44;;;;;;;7.63;4.25;;;8.10;99.90;;;;;;10055440;28;20453;-66
2024/01/29 13:43:35;;;;;;;5.38;3.65;;;8.10;99.90;;;;;;10050346;28;20032;-65
2024/01/29 13:48:26;;;;;;;7.40;4.30;;;8.10;99.90;;;;;;10042533;28;20025;-67
2024/01/29 13:53:17;;;;;;;6.45;3.78;;;8.00;99.90;;;;;;10043592;28;20087;-65
2024/01/29 13:58:07;;;;;;;8.48;3.92;;;7.90;99.90;;;;;;10038088;28;20080;-66
2024/01/29 14:02:59;;;;;;;6.78;4.03;;;7.90;99.90;;;;;;10042588;28;20063;-68
2024/01/29 14:07:50;;;;;;;5.65;3.17;;;8.00;99.90;;;;;;10052362;28;20047;-65
2024/01/29 14:12:40;;;;;;;11.55;5.00;;;8.10;99.90;;;;;;10046958;28;20515;-68
2024/01/29 14:17:31;;;;;;;7.85;4.00;;;8.10;99.90;;;;;;10055597;28;20079;-67
2024/01/29 14:22:23;;;;;;;8.02;4.40;;;8.20;99.90;;;;;;10042164;28;20056;-66
2024/01/29 14:27:14;;;;;;;5.75;3.83;;;8.10;99.90;;;;;;10034472;28;20452;-65
2024/01/29 14:32:05;;;;;;;7.97;4.50;;;8.10;99.90;;;;;;10039535;28;20037;-67
2024/01/29 14:36:56;;;;;;;8.18;4.70;;;8.10;99.90;;;;;;10054766;28;20024;-67
2024/01/29 14:41:47;;;;;;;7.03;4.30;;;8.10;99.90;;;;;;10051423;28;20127;-69
2024/01/29 14:46:39;;;;;;;6.30;3.72;;;8.10;99.90;;;;;;10051764;28;20037;-69
2024/01/29 14:51:31;;;;;;;9.25;4.65;;;8.20;99.90;;;;;;10050936;28;20434;-67
2024/01/29 14:56:21;;;;;;;11.35;5.47;;;8.30;99.90;;;;;;10046921;28;20041;-67
2024/01/29 15:01:12;;;;;;;8.50;4.75;;;8.40;99.90;;;;;;10052927;28;20025;-69
2024/01/29 15:06:03;;;;;;;9.00;5.63;;;8.40;99.90;;;;;;10050145;28;20048;-68
2024/01/29 15:10:57;;;;;;;9.25;5.25;;;8.40;99.90;;;;;;10039834;28;20036;-68
2024/01/29 15:15:47;;;;;;;9.23;5.20;;;8.50;99.90;;;;;;10055654;28;20025;-68
2024/01/29 15:20:38;;;;;;;10.32;4.85;;;8.60;99.90;;;;;;10034558;28;20021;-66
2024/01/29 15:25:29;;;;;;;9.32;5.03;;;8.50;99.90;;;;;;10034201;28;20061;-66
2024/01/29 15:30:19;;;;;;;9.65;4.72;;;8.50;99.90;;;;;;10061947;28;20033;-66
2024/01/29 15:35:10;;;;;;;7.15;4.70;;;8.50;99.90;;;;;;10058131;28;20037;-68
2024/01/29 15:40:03;;;;;;;8.07;5.05;;;8.60;99.90;;;;;;10057671;28;20451;-68
2024/01/29 15:44:54;;;;;;;8.10;5.13;;;8.60;99.90;;;;;;10058560;28;20079;-67
2024/01/29 15:49:44;;;;;;;11.10;5.93;;;8.50;99.90;;;;;;10056206;28;20483;-69
2024/01/29 15:54:35;;;;;;;8.52;4.30;;;8.40;99.90;;;;;;10033072;28;20107;-68
2024/01/29 15:59:26;;;;;;;9.70;4.65;;;8.30;99.90;;;;;;10058936;28;20729;-65
2024/01/29 16:04:16;;;;;;;9.02;4.90;;;8.30;99.90;;;;;;10061927;28;20029;-65
2024/01/29 16:09:07;;;;;;;10.43;5.75;;;8.30;99.90;;;;;;10061096;28;20120;-66
2024/01/29 16:13:58;;;;;;;11.90;7.60;;;8.30;99.90;;;;;;10062398;28;20132;-67
2024/01/29 16:18:49;;;;;;;16.42;8.43;;;8.40;99.90;;;;;;10071499;28;20112;-66
2024/01/29 16:23:39;;;;;;;11.70;7.00;;;8.50;99.90;;;;;;10075182;28;20045;-65
2024/01/29 16:28:30;;;;;;;15.98;8.40;;;8.60;99.90;;;;;;10072187;28;20572;-68
2024/01/29 16:33:21;;;;;;;16.10;8.55;;;8.50;99.90;;;;;;10054391;28;20408;-66
2024/01/29 16:38:11;;;;;;;16.13;8.95;;;8.40;99.90;;;;;;10055033;28;20542;-68
2024/01/29 16:43:02;;;;;;;19.13;9.70;;;8.40;99.90;;;;;;10062378;28;20239;-71
2024/01/29 16:47:53;;;;;;;17.92;9.80;;;8.30;99.90;;;;;;10061638;28;20024;-67
2024/01/29 16:52:44;;;;;;;22.42;11.60;;;8.40;99.90;;;;;;10025989;28;20037;-67
2024/01/29 16:57:35;;;;;;;19.50;10.73;;;8.30;99.90;;;;;;10050350;28;20377;-68
2024/01/29 17:02:25;;;;;;;16.65;10.70;;;8.30;99.90;;;;;;10054118;28;20041;-68
2024/01/29 17:07:16;;;;;;;19.58;11.32;;;8.30;99.90;;;;;;10060638;28;20041;-71
2024/01/29 17:12:07;;;;;;;19.48;11.35;;;8.20;99.90;;;;;;10066577;28;20041;-69
2024/01/29 17:16:57;;;;;;;19.33;10.52;;;8.20;99.90;;;;;;10061664;28;20025;-68
2024/01/29 17:21:49;;;;;;;18.50;10.90;;;8.20;99.90;;;;;;10055547;28;20491;-69
2024/01/29 17:26:39;;;;;;;17.50;10.88;;;8.20;99.90;;;;;;10060621;28;20048;-68
2024/01/29 17:31:30;;;;;;;19.52;12.35;;;8.20;99.90;;;;;;10055236;28;20546;-67
2024/01/29 17:36:21;;;;;;;74.47;37.15;;;8.30;99.90;;;;;;10085042;28;20036;-72
2024/01/29 17:41:11;;;;;;;40.63;22.63;;;8.30;99.90;;;;;;10046898;28;20029;-66
2024/01/29 17:46:02;;;;;;;27.50;15.07;;;8.20;99.90;;;;;;10051999;28;20625;-71
2024/01/29 17:50:53;;;;;;;23.80;12.27;;;8.20;99.90;;;;;;10055141;28;20036;-70
2024/01/29 17:55:43;;;;;;;25.75;13.27;;;8.20;99.90;;;;;;10049466;28;20111;-67
2024/01/29 18:00:34;;;;;;;17.95;11.50;;;8.20;99.90;;;;;;10036290;28;20021;-71
2024/01/29 18:05:25;;;;;;;18.05;9.90;;;8.20;99.90;;;;;;10047969;28;20029;-68
2024/01/29 18:10:15;;;;;;;15.65;10.13;;;8.20;99.90;;;;;;10050680;28;20017;-71
2024/01/29 18:15:09;;;;;;;28.17;14.20;;;8.20;99.90;;;;;;10055371;28;20507;-68
2024/01/29 18:20:00;;;;;;;92.93;43.90;;;8.20;99.90;;;;;;10048757;28;20121;-69
2024/01/29 18:24:54;;;;;;;45.35;26.80;;;8.40;99.90;;;;;;10050491;28;20422;-67
2024/01/29 18:29:45;;;;;;;22.92;15.60;;;8.30;99.90;;;;;;10054049;28;20126;-69
2024/01/29 18:34:37;;;;;;;23.98;13.88;;;8.30;99.90;;;;;;10058273;28;20033;-69
2024/01/29 18:39:27;;;;;;;20.58;11.82;;;8.30;99.90;;;;;;10064696;28;20017;-68
2024/01/29 18:44:18;;;;;;;22.98;12.50;;;8.20;99.90;;;;;;10080340;28;20021;-69
2024/01/29 18:49:09;;;;;;;22.42;11.77;;;8.20;99.90;;;;;;10069295;28;20037;-67
2024/01/29 18:54:01;;;;;;;20.45;10.85;;;8.20;99.90;;;;;;10075001;28;20037;-69
2024/01/29 18:58:52;;;;;;;70.00;35.00;;;8.20;99.90;;;;;;10073606;28;20060;-63
2024/01/29 19:03:42;;;;;;;89.25;42.55;;;8.20;99.90;;;;;;10062152;28;20069;-66
2024/01/29 19:08:34;;;;;;;39.95;21.02;;;8.20;99.90;;;;;;10059459;28;20032;-73
2024/01/29 19:13:25;;;;;;;27.77;14.48;;;8.20;99.90;;;;;;10062752;28;20029;-68
2024/01/29 19:18:16;;;;;;;23.63;12.82;;;8.20;99.90;;;;;;10071418;28;20479;-69
2024/01/29 19:23:07;;;;;;;22.80;12.23;;;8.20;99.90;;;;;;10069238;28;20119;-66
2024/01/29 19:27:57;;;;;;;21.20;12.95;;;8.20;99.90;;;;;;10070277;28;20136;-67
2024/01/29 19:32:49;;;;;;;19.55;11.65;;;8.20;99.90;;;;;;10064934;28;20057;-65
2024/01/29 19:37:40;;;;;;;20.05;10.65;;;8.20;99.90;;;;;;10066857;28;20059;-69
2024/01/29 19:42:30;;;;;;;21.13;13.32;;;8.20;99.90;;;;;;10069726;28;20124;-69
2024/01/29 19:47:21;;;;;;;21.17;12.10;;;8.10;99.90;;;;;;10071468;28;20025;-67
2024/01/29 19:52:14;;;;;;;21.95;10.63;;;8.10;99.90;;;;;;10063839;28;20407;-64
2024/01/29 19:57:04;;;;;;;25.65;11.75;;;8.10;99.90;;;;;;10071936;28;20414;-67
2024/01/29 20:01:56;;;;;;;19.83;11.80;;;8.10;99.90;;;;;;10060399;28;20041;-65
2024/01/29 20:06:47;;;;;;;19.63;11.55;;;8.10;99.90;;;;;;10070527;28;20550;-68
2024/01/29 20:11:38;;;;;;;25.73;13.05;;;8.10;99.90;;;;;;10073056;28;20099;-67
2024/01/29 20:16:28;;;;;;;29.50;13.57;;;8.10;99.90;;;;;;10075910;28;20032;-66
2024/01/29 20:21:19;;;;;;;25.75;13.50;;;8.10;99.90;;;;;;10077455;28;20072;-66
2024/01/29 20:26:10;;;;;;;28.40;14.27;;;8.10;99.90;;;;;;10080323;28;20396;-67
2024/01/29 20:31:01;;;;;;;25.30;13.55;;;8.00;99.90;;;;;;10074516;28;20387;-70
2024/01/29 20:35:52;;;;;;;31.05;15.10;;;8.00;99.90;;;;;;10076950;28;20128;-66
2024/01/29 20:40:42;;;;;;;27.42;14.88;;;8.10;99.90;;;;;;10069794;28;20108;-69
2024/01/29 20:45:33;;;;;;;25.73;14.20;;;8.00;99.90;;;;;;10077527;28;20029;-67
2024/01/29 20:50:24;;;;;;;28.10;16.10;;;8.00;99.90;;;;;;10076766;28;20154;-66
2024/01/29 20:55:16;;;;;;;31.65;16.63;;;8.00;99.90;;;;;;10077438;28;20047;-70
2024/01/29 21:00:07;;;;;;;27.67;15.20;;;8.00;99.90;;;;;;10077708;28;20524;-68
2024/01/29 21:04:58;;;;;;;26.80;15.27;;;8.00;99.90;;;;;;10065009;28;20112;-69
2024/01/29 21:09:49;;;;;;;30.58;16.48;;;8.00;99.90;;;;;;10056425;28;20028;-66
2024/01/29 21:14:42;;;;;;;26.83;15.60;;;8.00;99.90;;;;;;10057743;28;20048;-71
2024/01/29 21:19:32;;;;;;;27.63;15.13;;;8.00;99.90;;;;;;10070345;28;20128;-67
2024/01/29 21:24:23;;;;;;;26.13;14.77;;;7.90;99.90;;;;;;10074707;28;20723;-66
2024/01/29 21:29:14;;;;;;;30.92;15.80;;;7.90;99.90;;;;;;10073738;28;20021;-72
2024/01/29 21:34:05;;;;;;;24.45;13.05;;;7.90;99.90;;;;;;10072861;28;20041;-68
2024/01/29 21:38:56;;;;;;;38.08;19.88;;;7.90;99.90;;;;;;10063212;28;20394;-67
2024/01/29 21:43:46;;;;;;;29.33;17.02;;;7.90;99.90;;;;;;10071884;28;20040;-71
2024/01/29 21:48:37;;;;;;;23.92;15.00;;;8.00;99.90;;;;;;10055376;28;20030;-70
2024/01/29 21:53:27;;;;;;;25.80;14.40;;;8.00;99.90;;;;;;10046042;28;20033;-69
2024/01/29 21:58:22;;;;;;;33.08;15.45;;;7.90;99.90;;;;;;10040492;28;21489;-73
2024/01/29 22:03:12;;;;;;;23.35;13.98;;;7.90;99.90;;;;;;10052540;28;20045;-70
2024/01/29 22:08:10;;;;;;;26.90;14.07;;;7.90;99.90;;;;;;10058668;28;20036;-71
2024/01/29 22:13:00;;;;;;;19.60;13.40;;;7.80;99.90;;;;;;10052534;28;20041;-68
2024/01/29 22:17:51;;;;;;;25.15;14.48;;;7.80;99.90;;;;;;10055741;28;20045;-69
2024/01/29 22:22:42;;;;;;;24.33;14.68;;;7.80;99.90;;;;;;10052515;28;20155;-68
2024/01/29 22:27:32;;;;;;;23.40;14.80;;;7.70;99.90;;;;;;10056166;28;20198;-68
2024/01/29 22:32:23;;;;;;;31.02;16.95;;;7.70;99.90;;;;;;10055557;28;20381;-67
2024/01/29 22:37:16;;;;;;;48.35;24.35;;;7.70;99.90;;;;;;10055565;28;20041;-68
2024/01/29 22:42:08;;;;;;;31.70;18.45;;;7.90;99.90;;;;;;10057971;28;20026;-74
2024/01/29 22:46:59;;;;;;;28.33;15.98;;;7.80;99.90;;;;;;10061344;28;20025;-73
2024/01/29 22:51:49;;;;;;;23.55;15.05;;;7.70;99.90;;;;;;10075263;28;20122;-74
2024/01/29 22:56:41;;;;;;;28.42;15.30;;;7.70;99.90;;;;;;10076896;28;20035;-72
2024/01/29 23:01:32;;;;;;;29.33;14.85;;;7.60;99.90;;;;;;10068254;28;20071;-73
2024/01/29 23:06:23;;;;;;;26.05;14.30;;;7.60;99.90;;;;;;10103056;28;20101;-72
2024/01/29 23:11:14;;;;;;;29.80;16.95;;;7.50;99.90;;;;;;10070701;28;20029;-75
2024/01/29 23:16:05;;;;;;;25.27;14.38;;;7.50;99.90;;;;;;10074627;28;20106;-71
2024/01/29 23:20:55;;;;;;;26.10;15.35;;;7.50;99.90;;;;;;10061285;28;20407;-65
2024/01/29 23:25:46;;;;;;;29.95;16.73;;;7.40;99.90;;;;;;10055094;28;20033;-66
2024/01/29 23:30:36;;;;;;;26.33;16.65;;;7.50;99.90;;;;;;10055777;28;20041;-65
2024/01/29 23:35:27;;;;;;;30.80;15.45;;;7.40;99.90;;;;;;10057237;28;20048;-68
2024/01/29 23:40:18;;;;;;;25.75;15.52;;;7.50;99.90;;;;;;10055020;28;20040;-67
2024/01/29 23:45:08;;;;;;;22.67;15.15;;;7.40;99.90;;;;;;10055776;28;20466;-73
2024/01/29 23:49:59;;;;;;;27.23;16.35;;;7.40;99.90;;;;;;10059000;28;20044;-74
2024/01/29 23:54:50;;;;;;;23.25;14.00;;;7.40;99.90;;;;;;10063365;28;20184;-73
2024/01/29 23:59:40;;;;;;;21.90;13.20;;;7.50;99.90;;;;;;10063336;28;20087;-72
